Time;durP1;ratioP1;P1;durP2;ratioP2;P2;SDS_P1;SDS_P2;PMS_P1;PMS_P2;Temp;Humidity;BMP_temperature;BMP_pressure;BME280_temperature;BME280_humidity;BME280_pressure;Samples;Min_cycle;Max_cycle;Signal;HPM_P1;HPM_P2
2023/09/25 00:02:08;;;;;;;4.55;2.33;;;16.10;72.60;;;;;;5018323;28;20025;-60
2023/09/25 00:04:34;;;;;;;2.90;2.13;;;16.20;73.20;;;;;;5035232;28;20057;-64
2023/09/25 00:07:01;;;;;;;3.95;2.58;;;16.10;73.10;;;;;;5035278;28;20064;-62
2023/09/25 00:09:27;;;;;;;2.80;2.40;;;16.20;74.30;;;;;;5035227;28;20026;-62
2023/09/25 00:11:53;;;;;;;3.47;2.25;;;16.10;73.70;;;;;;5035494;28;20105;-62
2023/09/25 00:14:19;;;;;;;4.32;2.22;;;16.10;73.70;;;;;;5035251;28;20076;-63
2023/09/25 00:16:45;;;;;;;2.15;1.83;;;16.20;73.60;;;;;;5035059;28;20037;-61
2023/09/25 00:19:11;;;;;;;2.67;1.95;;;16.20;73.50;;;;;;5035303;28;20030;-62
2023/09/25 00:21:38;;;;;;;2.65;1.77;;;16.20;73.50;;;;;;5035346;28;20032;-61
2023/09/25 00:24:04;;;;;;;1.83;1.60;;;16.20;73.50;;;;;;5034964;28;20029;-63
2023/09/25 00:26:31;;;;;;;2.28;1.80;;;16.20;73.50;;;;;;5035024;28;20447;-63
2023/09/25 00:28:57;;;;;;;2.35;1.75;;;16.20;73.50;;;;;;5035310;28;20072;-61
2023/09/25 00:31:22;;;;;;;2.45;1.92;;;16.30;73.40;;;;;;5035528;28;20057;-61
2023/09/25 00:33:50;;;;;;;3.83;2.00;;;16.30;73.60;;;;;;5034918;28;20324;-62
2023/09/25 00:36:16;;;;;;;3.22;1.90;;;16.30;73.90;;;;;;5034904;28;20390;-61
2023/09/25 00:38:41;;;;;;;2.97;1.83;;;16.30;73.50;;;;;;5017472;28;20022;-62
2023/09/25 00:41:09;;;;;;;1.75;1.65;;;16.40;73.80;;;;;;5034959;28;20148;-63
2023/09/25 00:43:35;;;;;;;2.85;1.80;;;16.40;73.50;;;;;;5034767;28;20040;-62
2023/09/25 00:46:02;;;;;;;2.95;1.92;;;16.40;73.30;;;;;;5036543;28;20025;-63
2023/09/25 00:48:30;;;;;;;3.05;2.10;;;16.40;73.50;;;;;;5039100;28;20033;-63
2023/09/25 00:51:00;;;;;;;2.95;2.35;;;16.40;73.50;;;;;;5038828;28;20022;-63
2023/09/25 00:53:28;;;;;;;3.55;2.42;;;16.40;73.60;;;;;;5039731;28;20117;-64
2023/09/25 00:55:55;;;;;;;3.17;2.10;;;16.40;73.80;;;;;;5039000;28;20021;-62
2023/09/25 00:58:22;;;;;;;4.93;2.10;;;16.40;73.90;;;;;;5038571;28;20029;-63
2023/09/25 01:00:48;;;;;;;3.72;2.15;;;16.40;74.00;;;;;;5038593;28;20021;-63
2023/09/25 01:03:14;;;;;;;3.60;2.28;;;16.40;74.00;;;;;;5038572;28;20040;-60
2023/09/25 01:05:41;;;;;;;3.60;2.30;;;16.40;74.00;;;;;;5038672;28;20036;-63
2023/09/25 01:08:07;;;;;;;3.50;2.50;;;16.40;74.10;;;;;;5038704;28;20072;-60
2023/09/25 01:10:33;;;;;;;3.72;2.42;;;16.30;74.30;;;;;;5038670;28;20040;-62
2023/09/25 01:13:01;;;;;;;3.20;2.20;;;16.30;74.30;;;;;;5038355;28;20017;-62
2023/09/25 01:15:27;;;;;;;5.25;2.80;;;16.30;74.00;;;;;;5037956;28;20045;-63
2023/09/25 01:17:53;;;;;;;3.67;2.63;;;16.30;74.20;;;;;;5038787;28;20060;-61
2023/09/25 01:20:19;;;;;;;5.07;3.17;;;16.30;74.10;;;;;;5020714;28;20056;-63
2023/09/25 01:22:46;;;;;;;3.47;2.67;;;16.30;73.90;;;;;;5038681;28;20041;-63
2023/09/25 01:25:13;;;;;;;2.72;2.30;;;16.30;74.00;;;;;;5038078;28;20045;-62
2023/09/25 01:27:42;;;;;;;4.70;2.00;;;16.30;73.70;;;;;;5038354;28;20483;-62
2023/09/25 01:30:09;;;;;;;2.45;1.98;;;16.30;73.70;;;;;;5038009;28;20461;-63
2023/09/25 01:32:37;;;;;;;3.88;2.00;;;16.30;73.70;;;;;;5038032;28;20121;-61
2023/09/25 01:35:09;;;;;;;3.05;1.88;;;16.40;73.70;;;;;;5037812;28;20033;-63
2023/09/25 01:37:35;;;;;;;2.88;2.00;;;16.40;73.40;;;;;;5038266;28;20033;-62
2023/09/25 01:40:05;;;;;;;2.67;2.00;;;16.30;73.60;;;;;;5038389;28;20025;-63
2023/09/25 01:42:31;;;;;;;2.63;1.75;;;16.30;73.70;;;;;;5037800;28;20507;-63
2023/09/25 01:44:57;;;;;;;2.28;2.08;;;16.30;73.60;;;;;;5037765;28;20104;-62
2023/09/25 01:47:23;;;;;;;3.70;2.10;;;16.30;73.70;;;;;;5037813;28;20111;-61
2023/09/25 01:49:49;;;;;;;1.90;1.70;;;16.30;74.00;;;;;;5037787;28;20021;-62
2023/09/25 01:52:17;;;;;;;2.45;1.90;;;16.30;73.80;;;;;;5037690;28;20084;-62
2023/09/25 01:54:43;;;;;;;6.88;2.10;;;16.30;74.00;;;;;;5037857;28;20109;-63
2023/09/25 01:57:09;;;;;;;2.83;1.90;;;16.30;74.00;;;;;;5037489;28;20434;-61
2023/09/25 01:59:35;;;;;;;1.88;1.63;;;16.20;73.90;;;;;;5037725;28;20113;-64
2023/09/25 02:02:01;;;;;;;1.77;1.55;;;16.20;73.90;;;;;;5037553;28;20033;-61
2023/09/25 02:04:27;;;;;;;3.20;2.03;;;16.20;73.80;;;;;;5037375;28;20402;-62
2023/09/25 02:06:53;;;;;;;1.98;1.50;;;16.20;74.00;;;;;;5037334;28;20428;-62
2023/09/25 02:09:19;;;;;;;2.40;1.63;;;16.20;74.00;;;;;;5019905;28;20067;-60
2023/09/25 02:11:45;;;;;;;2.33;1.50;;;16.20;74.00;;;;;;5037849;28;20026;-63
2023/09/25 02:14:11;;;;;;;3.13;1.83;;;16.10;74.00;;;;;;5037347;28;20029;-61
2023/09/25 02:16:36;;;;;;;2.75;1.58;;;16.10;73.80;;;;;;5037011;28;20045;-63
2023/09/25 02:19:03;;;;;;;3.25;1.70;;;16.10;74.00;;;;;;5037341;28;20037;-60
2023/09/25 02:21:29;;;;;;;2.20;1.70;;;16.10;74.00;;;;;;5037404;28;20030;-61
2023/09/25 02:23:55;;;;;;;1.52;1.30;;;16.00;73.90;;;;;;5037058;28;20029;-61
2023/09/25 02:26:21;;;;;;;1.70;1.60;;;16.10;74.00;;;;;;5037035;28;20040;-63
2023/09/25 02:28:47;;;;;;;3.58;1.90;;;16.10;74.00;;;;;;5037535;28;20104;-63
2023/09/25 02:31:13;;;;;;;2.35;1.75;;;16.00;74.00;;;;;;5037214;28;20022;-62
2023/09/25 02:33:39;;;;;;;2.20;1.50;;;16.00;74.10;;;;;;5036786;28;20087;-61
2023/09/25 02:36:11;;;;;;;2.88;1.85;;;16.00;74.00;;;;;;5036845;28;20022;-62
2023/09/25 02:38:38;;;;;;;1.98;1.88;;;15.90;74.00;;;;;;5036754;28;20034;-61
2023/09/25 02:41:04;;;;;;;3.20;2.05;;;15.90;74.10;;;;;;5019455;28;20049;-63
2023/09/25 02:43:30;;;;;;;2.78;2.45;;;15.90;74.20;;;;;;5036625;28;20033;-62
2023/09/25 02:45:56;;;;;;;2.35;2.15;;;15.80;74.10;;;;;;5036934;28;20333;-61
2023/09/25 02:48:22;;;;;;;4.07;2.17;;;15.80;74.00;;;;;;5019144;28;20032;-63
2023/09/25 02:50:49;;;;;;;1.90;1.70;;;15.80;74.10;;;;;;5036564;28;20048;-61
2023/09/25 02:53:18;;;;;;;3.20;2.03;;;15.80;74.20;;;;;;5036713;28;20051;-62
2023/09/25 02:55:50;;;;;;;2.47;1.98;;;15.70;74.10;;;;;;5036360;28;20021;-60
2023/09/25 02:58:17;;;;;;;2.03;1.83;;;15.60;74.20;;;;;;5036349;28;20025;-62
2023/09/25 03:00:50;;;;;;;2.35;2.03;;;15.50;74.40;;;;;;5036572;28;20021;-62
2023/09/25 03:03:16;;;;;;;;;;;15.50;74.60;;;;;;5037278;28;20083;-60
2023/09/25 03:05:42;;;;;;;4.32;2.05;;;15.40;75.50;;;;;;5036458;28;19909;-61
2023/09/25 03:08:08;;;;;;;3.60;2.22;;;15.40;74.70;;;;;;5035483;28;20324;-61
2023/09/25 03:10:34;;;;;;;2.58;1.77;;;15.40;74.80;;;;;;5036330;28;20025;-60
2023/09/25 03:12:59;;;;;;;2.30;2.10;;;15.30;74.70;;;;;;5036096;28;20108;-61
2023/09/25 03:15:25;;;;;;;4.25;2.05;;;15.30;74.80;;;;;;5036060;28;20479;-63
2023/09/25 03:17:52;;;;;;;2.30;2.10;;;15.30;74.70;;;;;;5036028;28;20018;-61
2023/09/25 03:20:18;;;;;;;2.38;2.17;;;15.30;74.80;;;;;;5035842;28;20038;-62
2023/09/25 03:22:45;;;;;;;4.43;2.10;;;15.30;74.90;;;;;;5035960;28;20029;-63
2023/09/25 03:25:13;;;;;;;1.83;1.73;;;15.20;74.80;;;;;;5035885;28;20101;-63
2023/09/25 03:27:39;;;;;;;2.03;1.83;;;15.20;74.90;;;;;;5036152;28;20032;-65
2023/09/25 03:30:06;;;;;;;2.10;1.90;;;15.20;74.90;;;;;;5036373;28;20029;-63
2023/09/25 03:32:32;;;;;;;2.95;2.25;;;15.10;74.80;;;;;;5036314;28;20379;-62
2023/09/25 03:34:59;;;;;;;2.22;2.10;;;15.10;74.90;;;;;;5035958;28;20037;-64
2023/09/25 03:37:25;;;;;;;2.20;2.00;;;15.00;75.10;;;;;;5035931;28;20028;-63
2023/09/25 03:39:51;;;;;;;2.92;2.00;;;14.90;75.10;;;;;;5018219;28;20041;-63
2023/09/25 03:42:17;;;;;;;2.63;2.20;;;14.90;75.20;;;;;;5036119;28;20396;-61
2023/09/25 03:44:43;;;;;;;2.47;1.80;;;14.90;75.30;;;;;;5035752;28;20354;-65
2023/09/25 03:47:09;;;;;;;2.70;2.17;;;14.90;75.20;;;;;;5035637;28;20034;-63
2023/09/25 03:49:37;;;;;;;2.47;2.08;;;14.90;75.20;;;;;;5035540;28;20025;-65
2023/09/25 03:52:03;;;;;;;3.00;2.25;;;14.80;75.20;;;;;;5035739;28;20052;-62
2023/09/25 03:54:29;;;;;;;2.35;2.03;;;14.70;75.30;;;;;;5035449;28;20025;-64
2023/09/25 03:56:55;;;;;;;3.78;2.20;;;14.70;75.40;;;;;;5035426;28;20044;-62
2023/09/25 03:59:21;;;;;;;3.53;2.10;;;14.70;75.50;;;;;;5035318;28;20040;-63
2023/09/25 04:01:47;;;;;;;4.30;2.20;;;14.70;75.40;;;;;;5035386;28;20061;-64
2023/09/25 04:04:14;;;;;;;3.00;2.15;;;14.60;75.50;;;;;;5035238;28;20024;-63
2023/09/25 04:06:40;;;;;;;3.42;2.35;;;14.60;75.60;;;;;;5035205;28;20075;-62
2023/09/25 04:09:07;;;;;;;2.92;2.15;;;14.50;75.60;;;;;;5035286;28;20025;-65
2023/09/25 04:11:33;;;;;;;2.20;2.00;;;14.50;75.70;;;;;;5035137;28;20084;-64
2023/09/25 04:14:03;;;;;;;7.07;2.28;;;14.50;75.60;;;;;;5035399;28;20018;-63
2023/09/25 04:16:29;;;;;;;2.33;2.10;;;14.50;75.50;;;;;;5034983;28;20049;-62
2023/09/25 04:18:55;;;;;;;3.50;1.92;;;14.40;75.50;;;;;;5035053;28;20308;-64
2023/09/25 04:21:21;;;;;;;2.50;2.15;;;14.40;75.50;;;;;;5035184;28;20080;-63
2023/09/25 04:23:50;;;;;;;2.30;2.10;;;14.30;75.60;;;;;;5034918;28;20048;-65
2023/09/25 04:26:33;;;;;;;2.92;2.03;;;14.30;75.90;;;;;;5035620;28;20026;-62
2023/09/25 04:29:00;;;;;;;1.83;1.70;;;14.20;75.90;;;;;;5034923;28;20112;-65
2023/09/25 04:31:28;;;;;;;2.17;1.98;;;14.20;75.90;;;;;;5035025;28;20029;-63
2023/09/25 04:33:54;;;;;;;3.67;2.20;;;14.20;75.80;;;;;;5034810;28;20030;-63
2023/09/25 04:36:23;;;;;;;2.83;1.83;;;14.10;75.80;;;;;;5034938;28;20026;-64
2023/09/25 04:38:49;;;;;;;3.22;1.80;;;14.10;75.90;;;;;;5035131;28;20026;-61
2023/09/25 04:41:15;;;;;;;2.42;2.00;;;14.10;76.00;;;;;;5034829;28;20100;-62
2023/09/25 04:43:41;;;;;;;5.03;1.75;;;14.10;76.10;;;;;;5034774;28;20093;-63
2023/09/25 04:46:07;;;;;;;1.83;1.70;;;14.10;76.00;;;;;;5035102;28;20026;-63
2023/09/25 04:48:36;;;;;;;5.75;2.03;;;14.00;76.00;;;;;;5034779;28;20112;-64
2023/09/25 04:51:02;;;;;;;3.10;1.40;;;14.00;76.10;;;;;;5017394;28;20033;-65
2023/09/25 04:53:28;;;;;;;2.08;1.63;;;14.00;76.10;;;;;;5034677;28;20493;-62
2023/09/25 04:55:54;;;;;;;3.40;2.00;;;14.00;76.00;;;;;;5034775;28;20063;-65
2023/09/25 04:58:20;;;;;;;3.78;1.42;;;13.90;75.90;;;;;;5035204;28;20032;-64
2023/09/25 05:00:46;;;;;;;4.63;1.77;;;14.00;75.90;;;;;;5034706;28;20025;-63
2023/09/25 05:03:12;;;;;;;1.38;1.27;;;13.90;75.90;;;;;;5035223;28;20117;-63
2023/09/25 05:05:39;;;;;;;2.95;1.60;;;13.90;75.80;;;;;;5034595;28;20026;-63
2023/09/25 05:08:05;;;;;;;2.63;1.50;;;14.00;75.80;;;;;;5034682;28;20014;-63
2023/09/25 05:10:31;;;;;;;2.47;1.20;;;14.00;75.70;;;;;;5034884;28;20100;-64
2023/09/25 05:12:57;;;;;;;3.42;1.50;;;14.00;75.50;;;;;;5034725;28;20056;-66
2023/09/25 05:15:24;;;;;;;2.17;1.70;;;14.00;75.30;;;;;;5034316;28;20164;-65
2023/09/25 05:17:50;;;;;;;3.70;1.60;;;14.10;75.10;;;;;;5034532;28;20422;-62
2023/09/25 05:20:22;;;;;;;1.77;1.27;;;14.20;75.00;;;;;;5034651;28;20029;-65
2023/09/25 05:22:49;;;;;;;3.50;1.80;;;14.10;75.00;;;;;;5017106;28;20036;-62
2023/09/25 05:25:16;;;;;;;2.70;1.42;;;14.20;75.00;;;;;;5034419;28;20344;-65
2023/09/25 05:27:46;;;;;;;3.53;1.80;;;14.30;74.90;;;;;;5034738;28;20022;-63
2023/09/25 05:30:13;;;;;;;2.72;1.30;;;14.40;75.10;;;;;;5035033;28;20040;-65
2023/09/25 05:32:43;;;;;;;2.60;1.58;;;14.90;75.50;;;;;;5036929;28;20136;-63
2023/09/25 05:35:10;;;;;;;2.42;1.52;;;15.90;74.30;;;;;;5037977;28;20444;-64
2023/09/25 05:37:37;;;;;;;1.60;1.25;;;17.20;72.60;;;;;;5038051;28;20025;-63
2023/09/25 05:40:10;;;;;;;1.40;1.30;;;18.30;69.60;;;;;;5038153;28;20033;-63
2023/09/25 05:42:39;;;;;;;;;;;18.90;67.50;;;;;;5038907;28;20026;-61
2023/09/25 05:45:07;;;;;;;1.63;1.08;;;19.80;66.40;;;;;;5037763;28;19967;-63
2023/09/25 05:47:34;;;;;;;1.98;1.20;;;20.90;64.20;;;;;;5020441;28;20475;-61
2023/09/25 05:50:00;;;;;;;1.55;1.30;;;22.00;61.60;;;;;;5037657;28;20109;-63
2023/09/25 05:52:26;;;;;;;3.58;1.63;;;23.20;59.40;;;;;;5037964;28;20323;-62
2023/09/25 05:54:52;;;;;;;1.48;1.30;;;24.30;57.30;;;;;;5020497;28;20072;-62
2023/09/25 05:57:19;;;;;;;2.58;1.25;;;25.20;55.10;;;;;;5037879;28;20026;-63
2023/09/25 05:59:45;;;;;;;3.22;1.65;;;26.10;53.40;;;;;;5037521;28;20382;-63
2023/09/25 06:02:11;;;;;;;4.68;1.73;;;26.90;51.90;;;;;;5038072;28;20480;-62
2023/09/25 06:04:37;;;;;;;1.95;1.52;;;27.80;50.50;;;;;;5037395;28;20109;-63
2023/09/25 06:07:04;;;;;;;2.30;1.42;;;28.60;48.80;;;;;;5037468;28;20458;-63
2023/09/25 06:09:32;;;;;;;2.33;1.48;;;29.40;47.30;;;;;;5037345;28;20048;-61
2023/09/25 06:11:58;;;;;;;2.72;1.55;;;30.00;45.80;;;;;;5037377;28;20356;-62
2023/09/25 06:14:25;;;;;;;3.38;1.60;;;30.80;44.70;;;;;;5003428;28;20405;-61
2023/09/25 06:16:54;;;;;;;2.35;1.40;;;31.40;43.90;;;;;;5037309;28;20451;-63
2023/09/25 06:19:21;;;;;;;3.08;1.30;;;32.20;43.00;;;;;;5037063;28;20040;-62
2023/09/25 06:21:47;;;;;;;2.92;1.60;;;32.90;41.70;;;;;;5037474;28;20021;-61
2023/09/25 06:24:14;;;;;;;4.47;1.50;;;33.50;41.00;;;;;;5037038;28;20022;-63
2023/09/25 06:26:41;;;;;;;2.25;1.58;;;34.20;40.20;;;;;;5019628;28;20025;-62
2023/09/25 06:29:09;;;;;;;1.85;1.52;;;34.80;39.40;;;;;;5036975;28;20036;-63
2023/09/25 06:31:36;;;;;;;2.83;1.67;;;35.40;38.50;;;;;;5036917;28;20029;-64
2023/09/25 06:34:09;;;;;;;4.15;1.90;;;36.00;37.60;;;;;;5036774;28;20040;-63
2023/09/25 06:36:36;;;;;;;2.88;1.55;;;36.60;36.80;;;;;;5036877;28;20502;-61
2023/09/25 06:39:06;;;;;;;2.47;1.60;;;37.10;36.00;;;;;;5037267;28;20040;-63
2023/09/25 06:41:36;;;;;;;2.63;1.40;;;37.50;35.60;;;;;;5036769;28;20474;-62
2023/09/25 06:44:04;;;;;;;2.25;1.33;;;37.90;34.80;;;;;;5035553;28;20036;-62
2023/09/25 06:46:33;;;;;;;2.95;1.50;;;38.30;34.40;;;;;;5036668;28;20029;-62
2023/09/25 06:49:00;;;;;;;1.20;1.10;;;38.60;34.00;;;;;;5019294;28;20053;-62
2023/09/25 06:51:29;;;;;;;4.65;1.48;;;38.90;33.00;;;;;;5019440;28;20029;-64
2023/09/25 06:53:56;;;;;;;3.20;1.48;;;39.20;32.80;;;;;;5036522;28;20026;-63
2023/09/25 06:56:22;;;;;;;2.90;1.60;;;39.50;32.40;;;;;;5037032;28;20034;-61
2023/09/25 06:58:48;;;;;;;2.50;1.40;;;39.90;31.70;;;;;;5036603;28;20029;-63
2023/09/25 07:01:14;;;;;;;2.67;1.33;;;40.10;31.10;;;;;;5036388;28;20460;-61
2023/09/25 07:03:40;;;;;;;1.67;1.48;;;40.40;30.70;;;;;;5036209;28;20033;-62
2023/09/25 07:06:07;;;;;;;2.10;1.30;;;40.60;30.30;;;;;;5036830;28;20124;-63
2023/09/25 07:08:32;;;;;;;4.80;1.17;;;40.80;29.90;;;;;;5036186;28;20347;-62
2023/09/25 07:10:59;;;;;;;2.85;1.40;;;40.90;29.60;;;;;;5036173;28;20018;-61
2023/09/25 07:13:25;;;;;;;3.22;1.30;;;41.10;29.50;;;;;;5036110;28;20025;-64
2023/09/25 07:15:52;;;;;;;2.30;1.08;;;41.20;29.40;;;;;;5035920;28;20120;-63
2023/09/25 07:18:18;;;;;;;2.08;1.17;;;41.40;29.30;;;;;;5035990;28;20048;-63
2023/09/25 07:20:52;;;;;;;1.73;1.08;;;41.40;29.30;;;;;;5036028;28;20336;-63
2023/09/25 07:23:18;;;;;;;2.90;1.27;;;41.50;29.10;;;;;;5036538;28;20444;-62
2023/09/25 07:25:44;;;;;;;1.73;1.23;;;41.50;28.80;;;;;;5035877;28;20024;-62
2023/09/25 07:28:11;;;;;;;2.70;1.30;;;41.70;28.60;;;;;;5035897;28;20014;-62
2023/09/25 07:30:44;;;;;;;1.65;1.15;;;41.70;28.60;;;;;;5035781;28;20022;-63
2023/09/25 07:33:12;;;;;;;1.23;0.98;;;41.60;28.40;;;;;;5035839;28;20500;-62
2023/09/25 07:35:39;;;;;;;3.13;1.15;;;41.60;28.20;;;;;;5035650;28;20117;-63
2023/09/25 07:38:05;;;;;;;1.33;1.00;;;41.40;28.10;;;;;;5035734;28;20029;-63
2023/09/25 07:40:31;;;;;;;1.58;1.10;;;41.10;27.00;;;;;;5036158;28;20046;-64
2023/09/25 07:42:57;;;;;;;1.00;0.90;;;40.80;27.20;;;;;;5035891;28;20044;-64
2023/09/25 07:45:25;;;;;;;1.30;1.00;;;40.50;27.30;;;;;;5036075;28;20017;-63
2023/09/25 07:47:54;;;;;;;2.88;0.80;;;40.30;27.40;;;;;;5035800;28;20040;-62
2023/09/25 07:50:24;;;;;;;1.33;1.00;;;40.10;27.60;;;;;;5035787;28;20076;-62
2023/09/25 07:52:54;;;;;;;2.83;1.15;;;40.00;27.30;;;;;;5035774;28;20033;-63
2023/09/25 07:55:21;;;;;;;3.40;1.05;;;39.80;27.30;;;;;;5035140;28;20116;-63
2023/09/25 07:57:48;;;;;;;2.55;1.20;;;39.50;27.20;;;;;;5035714;28;20021;-63
2023/09/25 08:00:34;;;;;;;1.02;0.90;;;39.20;27.10;;;;;;5035237;28;20047;-63
2023/09/25 08:03:00;;;;;;;0.80;0.80;;;39.00;27.10;;;;;;5035684;28;20052;-62
2023/09/25 08:05:28;;;;;;;3.00;0.90;;;38.80;27.10;;;;;;5035237;28;20038;-63
2023/09/25 08:07:54;;;;;;;1.73;1.10;;;38.50;26.90;;;;;;5035219;28;20034;-63
2023/09/25 08:10:20;;;;;;;1.80;1.27;;;38.40;27.00;;;;;;5035302;28;20041;-61
2023/09/25 08:12:47;;;;;;;1.38;1.10;;;38.10;26.80;;;;;;5035268;28;20021;-62
2023/09/25 08:15:13;;;;;;;2.63;1.00;;;38.00;26.70;;;;;;5034850;28;20069;-62
2023/09/25 08:17:44;;;;;;;3.10;1.05;;;37.70;26.50;;;;;;5035143;28;20080;-62
2023/09/25 08:20:17;;;;;;;2.45;0.90;;;36.90;26.80;;;;;;5034987;28;20026;-62
2023/09/25 08:22:45;;;;;;;1.63;1.10;;;35.90;27.70;;;;;;5035432;28;20030;-63
2023/09/25 08:25:11;;;;;;;1.83;0.90;;;34.80;28.80;;;;;;5035264;28;20068;-61
2023/09/25 08:27:37;;;;;;;2.10;1.20;;;33.80;30.00;;;;;;5035101;28;20385;-61
2023/09/25 08:30:06;;;;;;;1.88;0.90;;;32.90;31.10;;;;;;5035313;28;20036;-62
2023/09/25 08:32:32;;;;;;;2.53;0.98;;;32.10;31.70;;;;;;5035256;28;20026;-59
2023/09/25 08:34:59;;;;;;;1.23;0.90;;;31.30;32.50;;;;;;5035128;28;20116;-60
2023/09/25 08:37:25;;;;;;;1.02;0.93;;;30.70;33.30;;;;;;5017903;28;20033;-62
2023/09/25 08:39:54;;;;;;;3.22;1.05;;;30.20;34.20;;;;;;5034853;28;20030;-60
2023/09/25 08:42:22;;;;;;;2.92;1.10;;;29.80;34.90;;;;;;5035179;28;20435;-60
2023/09/25 08:44:52;;;;;;;1.27;0.80;;;29.40;35.30;;;;;;5017464;28;20394;-60
2023/09/25 08:47:19;;;;;;;2.70;0.82;;;29.10;35.60;;;;;;5034819;28;20026;-61
2023/09/25 08:49:52;;;;;;;1.30;0.85;;;28.70;36.00;;;;;;5002077;28;20026;-61
2023/09/25 08:52:19;;;;;;;;;;;28.40;36.40;;;;;;5017953;28;20068;-61
2023/09/25 08:54:46;;;;;;;2.17;0.82;;;28.10;36.20;;;;;;5034797;28;19909;-62
2023/09/25 08:57:12;;;;;;;1.00;0.80;;;28.00;37.30;;;;;;5035062;28;20033;-63
2023/09/25 08:59:39;;;;;;;1.90;1.10;;;28.00;37.60;;;;;;5034726;28;20497;-61
2023/09/25 09:02:08;;;;;;;2.20;1.20;;;28.00;37.40;;;;;;5034685;28;20432;-61
2023/09/25 09:04:37;;;;;;;1.45;1.10;;;28.10;37.10;;;;;;5034804;28;20021;-60
2023/09/25 09:07:05;;;;;;;1.50;1.08;;;28.10;36.80;;;;;;5036339;28;20056;-63
2023/09/25 09:09:32;;;;;;;1.77;1.08;;;28.20;36.70;;;;;;5038765;28;20045;-63
2023/09/25 09:11:58;;;;;;;2.22;0.80;;;28.40;36.70;;;;;;5038982;28;20026;-63
2023/09/25 09:14:41;;;;;;;3.03;1.10;;;28.40;36.70;;;;;;5030780;28;20021;-60
2023/09/25 09:17:09;;;;;;;3.38;1.00;;;28.50;35.70;;;;;;5018698;28;20045;-61
2023/09/25 09:19:37;;;;;;;0.75;0.73;;;28.60;36.40;;;;;;5018385;28;20057;-62
2023/09/25 09:22:06;;;;;;;2.33;1.00;;;28.50;36.10;;;;;;5018784;28;20038;-61
2023/09/25 09:24:39;;;;;;;1.33;1.00;;;28.60;36.30;;;;;;5018361;28;20025;-63
2023/09/25 09:27:08;;;;;;;2.38;1.10;;;28.50;35.90;;;;;;5018476;28;20037;-62
2023/09/25 09:29:40;;;;;;;3.45;1.15;;;28.40;35.60;;;;;;5017733;28;20022;-63
2023/09/25 09:32:06;;;;;;;4.00;1.00;;;28.30;35.70;;;;;;5017286;28;20076;-62
2023/09/25 09:34:36;;;;;;;2.63;0.98;;;28.20;36.00;;;;;;5018242;28;20029;-63
2023/09/25 09:37:08;;;;;;;1.77;0.90;;;28.10;35.50;;;;;;5018225;28;20033;-61
2023/09/25 09:39:36;;;;;;;1.27;0.90;;;28.10;36.10;;;;;;5018100;28;20444;-63
2023/09/25 09:42:08;;;;;;;0.98;0.85;;;28.00;36.50;;;;;;5018358;28;20448;-61
2023/09/25 09:44:36;;;;;;;1.20;0.80;;;28.00;36.20;;;;;;5017941;28;20029;-63
2023/09/25 09:47:05;;;;;;;1.00;0.70;;;27.90;35.60;;;;;;5018315;28;20030;-61
2023/09/25 09:49:39;;;;;;;1.80;0.90;;;27.70;35.90;;;;;;5018563;28;20030;-60
2023/09/25 09:52:07;;;;;;;2.05;0.90;;;27.50;36.10;;;;;;5018190;28;20049;-62
2023/09/25 09:54:37;;;;;;;1.67;0.98;;;27.50;36.20;;;;;;5017778;28;20046;-61
2023/09/25 09:57:04;;;;;;;2.47;0.82;;;27.50;36.40;;;;;;5017902;28;20065;-62
2023/09/25 09:59:31;;;;;;;1.42;0.70;;;27.60;35.90;;;;;;5018290;28;20026;-64
2023/09/25 10:02:02;;;;;;;0.70;0.60;;;27.60;36.20;;;;;;5017676;28;20030;-62
2023/09/25 10:04:30;;;;;;;1.35;0.60;;;27.70;36.20;;;;;;5017843;28;20018;-63
2023/09/25 10:07:05;;;;;;;2.28;0.75;;;27.70;35.70;;;;;;5018218;28;20429;-63
2023/09/25 10:09:32;;;;;;;1.60;0.50;;;27.80;35.40;;;;;;5017514;28;20044;-62
2023/09/25 10:12:01;;;;;;;1.60;0.70;;;27.80;35.80;;;;;;5017506;28;20022;-62
2023/09/25 10:14:30;;;;;;;0.75;0.73;;;27.90;36.00;;;;;;5017521;28;20037;-63
2023/09/25 10:17:03;;;;;;;0.77;0.77;;;27.90;35.90;;;;;;5017747;28;20040;-61
2023/09/25 10:19:41;;;;;;;0.77;0.52;;;27.90;35.00;;;;;;5017160;28;20021;-62
2023/09/25 10:22:13;;;;;;;1.33;0.82;;;28.00;35.20;;;;;;5000139;28;20095;-63
2023/09/25 10:24:43;;;;;;;0.82;0.80;;;28.00;35.50;;;;;;5017509;28;20441;-60
2023/09/25 10:27:11;;;;;;;3.55;1.13;;;28.20;36.10;;;;;;5017359;28;20018;-61
2023/09/25 10:30:00;;;;;;;1.90;1.02;;;28.20;36.50;;;;;;5017230;28;20076;-61
2023/09/25 10:32:36;;;;;;;0.98;0.70;;;28.30;36.80;;;;;;5017650;28;20065;-62
2023/09/25 10:35:35;;;;;;;1.80;1.27;;;28.30;37.10;;;;;;5017645;28;20030;-61
2023/09/25 10:38:11;;;;;;;2.00;1.05;;;28.40;37.60;;;;;;5017423;28;20088;-63
2023/09/25 10:40:38;;;;;;;3.08;1.23;;;28.40;37.60;;;;;;5016997;28;20026;-63
2023/09/25 10:43:05;;;;;;;1.35;1.08;;;28.40;37.70;;;;;;5016934;28;20026;-62
2023/09/25 10:45:34;;;;;;;1.05;0.80;;;28.40;37.70;;;;;;5017006;28;20064;-62
2023/09/25 10:48:00;;;;;;;1.50;0.90;;;28.40;37.30;;;;;;5016856;28;20531;-62
2023/09/25 10:50:27;;;;;;;0.85;0.80;;;28.40;37.30;;;;;;5016881;28;20018;-63
2023/09/25 10:52:54;;;;;;;1.80;1.08;;;28.40;37.40;;;;;;5016779;28;20045;-61
2023/09/25 10:55:26;;;;;;;1.30;1.05;;;28.50;36.90;;;;;;5016812;28;20341;-63
2023/09/25 10:57:53;;;;;;;1.38;0.82;;;28.40;36.40;;;;;;5016835;28;20075;-63
2023/09/25 11:00:19;;;;;;;1.17;0.82;;;28.30;36.50;;;;;;5016671;28;20041;-62
2023/09/25 11:02:46;;;;;;;1.38;1.00;;;28.30;37.00;;;;;;5016721;28;20029;-60
2023/09/25 11:05:12;;;;;;;1.35;0.90;;;28.40;37.10;;;;;;5016848;28;20132;-61
2023/09/25 11:07:39;;;;;;;1.52;1.10;;;28.40;36.80;;;;;;5016602;28;20022;-62
2023/09/25 11:10:13;;;;;;;1.73;0.80;;;28.40;36.90;;;;;;5017131;28;20108;-62
2023/09/25 11:12:47;;;;;;;0.88;0.77;;;28.40;36.10;;;;;;5016875;28;20079;-61
2023/09/25 11:15:17;;;;;;;1.17;1.00;;;28.40;36.30;;;;;;5016316;28;20379;-61
2023/09/25 11:17:46;;;;;;;0.98;0.70;;;28.40;36.50;;;;;;5016413;28;20494;-62
2023/09/25 11:20:19;;;;;;;1.75;0.80;;;28.40;36.50;;;;;;5016609;28;20089;-63
2023/09/25 11:22:48;;;;;;;1.35;0.93;;;28.40;36.60;;;;;;5016972;28;20132;-61
2023/09/25 11:25:17;;;;;;;1.20;1.02;;;28.40;36.60;;;;;;5016349;28;20347;-63
2023/09/25 11:27:53;;;;;;;1.35;0.90;;;28.40;36.90;;;;;;5016236;28;20105;-61
2023/09/25 11:30:20;;;;;;;1.38;0.88;;;28.50;36.60;;;;;;5015894;28;20033;-60
2023/09/25 11:32:49;;;;;;;0.88;0.80;;;28.50;36.90;;;;;;4998920;28;20371;-63
2023/09/25 11:35:20;;;;;;;1.10;0.77;;;28.50;36.70;;;;;;5016121;28;20135;-62
2023/09/25 11:38:00;;;;;;;1.17;0.90;;;28.60;36.80;;;;;;5016368;28;20152;-61
2023/09/25 11:40:26;;;;;;;1.65;0.90;;;28.70;35.50;;;;;;4998945;28;20165;-63
2023/09/25 11:42:53;;;;;;;1.38;1.02;;;28.60;36.30;;;;;;5015239;28;20029;-60
2023/09/25 11:45:19;;;;;;;1.15;0.85;;;28.50;36.10;;;;;;5015113;28;20449;-62
2023/09/25 11:47:46;;;;;;;2.83;1.00;;;28.50;36.10;;;;;;5015975;28;20455;-62
2023/09/25 11:50:15;;;;;;;1.77;1.10;;;28.50;36.10;;;;;;4998710;28;20379;-63
2023/09/25 11:52:43;;;;;;;0.77;0.77;;;28.50;36.20;;;;;;5016122;28;20133;-61
2023/09/25 11:55:16;;;;;;;2.53;1.30;;;28.60;36.40;;;;;;5016052;28;20050;-60
2023/09/25 11:57:42;;;;;;;;;;;28.60;36.20;;;;;;5016824;28;20049;-60
2023/09/25 12:00:18;;;;;;;2.28;0.90;;;28.50;35.40;;;;;;5016145;28;19910;-62
2023/09/25 12:02:47;;;;;;;1.20;0.73;;;28.60;36.50;;;;;;5016332;28;20046;-61
2023/09/25 12:05:14;;;;;;;1.73;0.80;;;28.60;36.50;;;;;;5015692;28;20018;-62
2023/09/25 12:07:42;;;;;;;1.55;1.00;;;28.70;36.40;;;;;;4998369;28;20064;-61
2023/09/25 12:10:17;;;;;;;1.40;1.02;;;28.70;36.10;;;;;;5015913;28;20026;-62
2023/09/25 12:12:47;;;;;;;1.90;0.95;;;28.70;36.40;;;;;;5015914;28;20072;-63
2023/09/25 12:15:19;;;;;;;1.38;1.00;;;28.80;36.40;;;;;;5015209;28;20096;-62
2023/09/25 12:17:45;;;;;;;2.30;1.08;;;28.80;36.20;;;;;;5015449;28;20040;-63
2023/09/25 12:20:14;;;;;;;6.63;1.17;;;28.90;36.10;;;;;;5015474;28;20468;-62
2023/09/25 12:22:45;;;;;;;1.45;0.95;;;28.80;36.20;;;;;;5015418;28;20030;-64
2023/09/25 12:25:16;;;;;;;2.13;0.90;;;28.90;35.80;;;;;;5012253;28;20068;-63
2023/09/25 12:27:44;;;;;;;1.55;1.00;;;28.90;36.20;;;;;;4998060;28;20025;-61
2023/09/25 12:30:13;;;;;;;2.63;1.00;;;28.90;36.20;;;;;;5015339;28;20053;-61
2023/09/25 12:32:39;;;;;;;1.15;1.05;;;28.90;36.10;;;;;;5015355;28;20022;-62
2023/09/25 12:35:14;;;;;;;4.10;1.25;;;28.90;35.80;;;;;;5015347;28;20030;-61
2023/09/25 12:37:43;;;;;;;1.55;0.80;;;28.90;35.80;;;;;;5015628;28;20048;-64
2023/09/25 12:40:10;;;;;;;1.02;0.90;;;28.90;35.70;;;;;;5015664;28;20456;-62
2023/09/25 12:42:36;;;;;;;2.50;1.17;;;28.90;35.90;;;;;;5019392;28;20048;-62
2023/09/25 12:45:04;;;;;;;2.60;1.10;;;28.90;35.80;;;;;;5019226;28;20018;-63
2023/09/25 12:47:30;;;;;;;1.17;0.90;;;28.90;36.00;;;;;;5019165;28;20037;-62
2023/09/25 12:49:57;;;;;;;2.00;1.15;;;28.90;36.00;;;;;;5019208;28;20022;-63
2023/09/25 12:52:23;;;;;;;0.95;0.82;;;29.00;36.10;;;;;;5018996;28;20042;-63